Watertown International Airport
KART : now visible

Airfield :











YOU CAN JOIN US ON...

 
LOGIN :

Register | Disclaimer

   EN    FR    IT 

 









Legend :    VFR   Marginal VFR   IFR   Intensive IFR   Very Intensive IFR
Visi :
Ceiling :
>= 8 km
>= 3000ft
5 to 8 km
1000 to 3000 ft
1500m to 5 km
500 to 1000 ft
800 to 1500m
200 to 500 ft
< 800m
< 200 ft
Symbols :   Thunderstorms  Fog  Heavy snow  Heavy precipitations  Wind > 20 kt







- Airport Elevation : 325 ft
- IATA code : ART


KART - Watertown International

CURRENT METAR :
  • 211356Z AUTO 24004KT 10SM OVC006 08/07 A2999 RMK AO2 SLP155 T00780072

EXPIRED METARs :
  • 211305Z AUTO 22003KT 10SM OVC005 07/07 A2997 RMK AO2 T00720067
  • 211256Z AUTO 21004KT 9SM OVC004 07/07 A2998 RMK AO2 SLP153 T00720067
  • 211156Z AUTO 23006KT 4SM BR OVC004 07/07 A2994 RMK AO2 SLP141 70013 T00670067 10067 20056 51033

TAF KART
Valid from the 21 at 12:00 until the 22 at 12:00 UTC


211130Z 2112/2212 22005KT 3SM BR OVC002
FM211300 22005KT 2SM BR OVC004
FM211400 24006KT P6SM OVC007
FM211800 26008KT P6SM SCT020 BKN050
FM220000 VRB03KT P6SM BKN060
FM220700 00000KT 1 1/2SM BR OVC007
KZBW FIR / North America



MET'MAP, your aeronautical weather chart ! - Copyright ORBIFLY December 2007 - Disclaimer

ORBIFLY MET'MAP TEAM :

Programming & Development : Alexandra Zaïnal
Concept & Development : Baudouin d'Aumeries
Co-Development & Prog : Marc-Olivier Méhu
Technical & hardware support : Manuel Goepfert

Contact : metmap@orbifly.com




SOURCES & CREDITS :

   NOAA       Earth
Advisory